BAW2605 OBBI-OEJN
Flight info
| Callsign | BAW2605 |
|---|---|
| Flight time | N/A |
| Altitude | 40000 |
| Route | BHR B457 NARMI N112 GETOT Q212 KSA G782 VEMEM |
| Aircraft | A35K/H-SDE2E3GHIJ3J4J5LM1ORWXY/LB1D1 |
Departure
| Time | N/A |
|---|---|
| Airport | Bahrain International Airport (OBBI) |
Arrival
| Time | 2026-04-30 18:36 |
|---|---|
| Airport | King Abdulaziz International Airport (OEJN) |
| Time | Latitude | Longitude | Altitude | Speed | Heading |
|---|---|---|---|---|---|
| 2026-04-30 17:39 | 23.67551 | 43.44210 | 39971 ft | 436 kts | 255° |
| 2026-04-30 17:42 | 23.60418 | 43.12231 | 39982 ft | 435 kts | 255° |
| 2026-04-30 17:43 | 23.56828 | 42.96259 | 39976 ft | 434 kts | 255° |
| 2026-04-30 17:44 | 23.52501 | 42.77114 | 39973 ft | 434 kts | 255° |
| 2026-04-30 17:47 | 23.45988 | 42.48500 | 39977 ft | 431 kts | 255° |
| 2026-04-30 17:48 | 23.40914 | 42.26381 | 39963 ft | 431 kts | 254° |
| 2026-04-30 17:50 | 23.35085 | 42.01159 | 39965 ft | 429 kts | 254° |
| 2026-04-30 17:52 | 23.30703 | 41.82327 | 39972 ft | 429 kts | 254° |
| 2026-04-30 17:53 | 23.25533 | 41.67252 | 39979 ft | 427 kts | 239° |
| 2026-04-30 17:54 | 23.19130 | 41.56413 | 39982 ft | 429 kts | 238° |
| 2026-04-30 17:56 | 23.06217 | 41.34669 | 40015 ft | 429 kts | 238° |
| 2026-04-30 17:58 | 22.96520 | 41.18363 | 40007 ft | 429 kts | 238° |
| 2026-04-30 18:00 | 22.83573 | 40.96682 | 40009 ft | 430 kts | 238° |
| 2026-04-30 18:01 | 22.75468 | 40.83160 | 40018 ft | 429 kts | 238° |
| 2026-04-30 18:02 | 22.65734 | 40.66970 | 39025 ft | 423 kts | 238° |
| 2026-04-30 18:03 | 22.60914 | 40.58970 | 37026 ft | 421 kts | 238° |
| 2026-04-30 18:04 | 22.56119 | 40.51024 | 35021 ft | 420 kts | 238° |
| 2026-04-30 18:05 | 22.49666 | 40.40352 | 31797 ft | 429 kts | 239° |
| 2026-04-30 18:06 | 22.43177 | 40.29645 | 29261 ft | 418 kts | 240° |
| 2026-04-30 18:07 | 22.36936 | 40.19357 | 27044 ft | 410 kts | 240° |
| 2026-04-30 18:08 | 22.32264 | 40.11675 | 25385 ft | 405 kts | 240° |
| 2026-04-30 18:09 | 22.26208 | 40.01738 | 23899 ft | 377 kts | 240° |
| 2026-04-30 18:10 | 22.20795 | 39.92873 | 23256 ft | 331 kts | 240° |
| 2026-04-30 18:11 | 22.15970 | 39.84968 | 22020 ft | 311 kts | 240° |
| 2026-04-30 18:11 | 22.12427 | 39.79174 | 20889 ft | 305 kts | 240° |
| 2026-04-30 18:12 | 22.08963 | 39.73520 | 19763 ft | 298 kts | 239° |
| 2026-04-30 18:13 | 22.06707 | 39.69838 | 19007 ft | 294 kts | 238° |
| 2026-04-30 18:13 | 22.03729 | 39.64985 | 18000 ft | 289 kts | 238° |
| 2026-04-30 18:14 | 22.01156 | 39.60799 | 17160 ft | 285 kts | 238° |
| 2026-04-30 18:15 | 21.97914 | 39.55526 | 16098 ft | 280 kts | 238° |
| 2026-04-30 18:15 | 21.94722 | 39.50325 | 15082 ft | 276 kts | 239° |
| 2026-04-30 18:16 | 21.92881 | 39.46494 | 14570 ft | 295 kts | 245° |
| 2026-04-30 18:16 | 21.91118 | 39.42511 | 14116 ft | 294 kts | 245° |
| 2026-04-30 18:17 | 21.90240 | 39.40534 | 13891 ft | 292 kts | 245° |
| 2026-04-30 18:17 | 21.89374 | 39.38589 | 13645 ft | 291 kts | 245° |
| 2026-04-30 18:17 | 21.87624 | 39.34662 | 13144 ft | 291 kts | 245° |
| 2026-04-30 18:18 | 21.86748 | 39.32699 | 12890 ft | 291 kts | 245° |
| 2026-04-30 18:18 | 21.85873 | 39.30739 | 12646 ft | 290 kts | 245° |
| 2026-04-30 18:18 | 21.85005 | 39.28793 | 12387 ft | 285 kts | 245° |
| 2026-04-30 18:18 | 21.84160 | 39.26904 | 12158 ft | 276 kts | 245° |
| 2026-04-30 18:19 | 21.83340 | 39.25076 | 11921 ft | 267 kts | 245° |
| 2026-04-30 18:19 | 21.82300 | 39.23458 | 11684 ft | 261 kts | 224° |
| 2026-04-30 18:19 | 21.80716 | 39.22632 | 11448 ft | 259 kts | 191° |
| 2026-04-30 18:19 | 21.78945 | 39.22831 | 11216 ft | 258 kts | 166° |
| 2026-04-30 18:20 | 21.77258 | 39.23476 | 11007 ft | 258 kts | 162° |
| 2026-04-30 18:20 | 21.75580 | 39.24164 | 10766 ft | 258 kts | 162° |
| 2026-04-30 18:20 | 21.73896 | 39.24846 | 10527 ft | 258 kts | 162° |
| 2026-04-30 18:20 | 21.72213 | 39.25518 | 10308 ft | 258 kts | 162° |
| 2026-04-30 18:21 | 21.70534 | 39.26191 | 10077 ft | 257 kts | 162° |
| 2026-04-30 18:21 | 21.68858 | 39.26857 | 9850 ft | 256 kts | 162° |
| 2026-04-30 18:21 | 21.67185 | 39.27519 | 9606 ft | 256 kts | 162° |
| 2026-04-30 18:21 | 21.65543 | 39.28170 | 9359 ft | 254 kts | 162° |
| 2026-04-30 18:22 | 21.63886 | 39.28826 | 9103 ft | 253 kts | 162° |
| 2026-04-30 18:22 | 21.60599 | 39.30125 | 8612 ft | 251 kts | 162° |
| 2026-04-30 18:22 | 21.58968 | 39.30762 | 8368 ft | 249 kts | 162° |
| 2026-04-30 18:23 | 21.57337 | 39.31398 | 8133 ft | 248 kts | 162° |
| 2026-04-30 18:23 | 21.55720 | 39.32031 | 7893 ft | 247 kts | 162° |
| 2026-04-30 18:23 | 21.54113 | 39.32659 | 7660 ft | 246 kts | 162° |
| 2026-04-30 18:23 | 21.52511 | 39.33289 | 7421 ft | 244 kts | 162° |
| 2026-04-30 18:24 | 21.49353 | 39.34526 | 6958 ft | 242 kts | 162° |
| 2026-04-30 18:24 | 21.47773 | 39.35143 | 6725 ft | 241 kts | 162° |
| 2026-04-30 18:24 | 21.46207 | 39.35756 | 6499 ft | 238 kts | 162° |
| 2026-04-30 18:25 | 21.44662 | 39.36361 | 6270 ft | 235 kts | 162° |
| 2026-04-30 18:25 | 21.41616 | 39.37560 | 5783 ft | 232 kts | 162° |
| 2026-04-30 18:25 | 21.40098 | 39.38154 | 5549 ft | 233 kts | 162° |
| 2026-04-30 18:26 | 21.37068 | 39.39299 | 5100 ft | 231 kts | 167° |
| 2026-04-30 18:26 | 21.35493 | 39.39302 | 4865 ft | 227 kts | 198° |
| 2026-04-30 18:26 | 21.34218 | 39.38382 | 4637 ft | 222 kts | 233° |
| 2026-04-30 18:27 | 21.32995 | 39.35376 | 4170 ft | 220 kts | 251° |
| 2026-04-30 18:27 | 21.32594 | 39.33807 | 3931 ft | 218 kts | 264° |
| 2026-04-30 18:28 | 21.33771 | 39.31020 | 3450 ft | 217 kts | 325° |
| 2026-04-30 18:28 | 21.35146 | 39.30343 | 3209 ft | 218 kts | 337° |
| 2026-04-30 18:28 | 21.37974 | 39.29290 | 3009 ft | 212 kts | 339° |
| 2026-04-30 18:29 | 21.39382 | 39.28758 | 3008 ft | 216 kts | 338° |
| 2026-04-30 18:29 | 21.43632 | 39.27113 | 3003 ft | 216 kts | 338° |
| 2026-04-30 18:30 | 21.45972 | 39.26193 | 2999 ft | 216 kts | 339° |
| 2026-04-30 18:30 | 21.49269 | 39.24895 | 3003 ft | 218 kts | 338° |
| 2026-04-30 18:31 | 21.50689 | 39.24335 | 3001 ft | 217 kts | 339° |
| 2026-04-30 18:31 | 21.53276 | 39.23331 | 2911 ft | 173 kts | 338° |
| 2026-04-30 18:32 | 21.55403 | 39.22493 | 2319 ft | 157 kts | 339° |
| 2026-04-30 18:32 | 21.56389 | 39.22105 | 2118 ft | 145 kts | 339° |
| 2026-04-30 18:32 | 21.58181 | 39.21398 | 1760 ft | 131 kts | 340° |
| 2026-04-30 18:33 | 21.59030 | 39.21063 | 1606 ft | 129 kts | 340° |
| 2026-04-30 18:33 | 21.60730 | 39.20391 | 1251 ft | 132 kts | 340° |
| 2026-04-30 18:33 | 21.61590 | 39.20051 | 1081 ft | 132 kts | 341° |
| 2026-04-30 18:34 | 21.62454 | 39.19710 | 918 ft | 132 kts | 340° |
| 2026-04-30 18:34 | 21.64159 | 39.19034 | 615 ft | 131 kts | 339° |
| 2026-04-30 18:34 | 21.65021 | 39.18694 | 428 ft | 133 kts | 339° |
| 2026-04-30 18:35 | 21.65889 | 39.18350 | 268 ft | 133 kts | 340° |
| 2026-04-30 18:35 | 21.66755 | 39.18008 | 106 ft | 132 kts | 341° |
| 2026-04-30 18:35 | 21.67598 | 39.17683 | 42 ft | 122 kts | 341° |
| 2026-04-30 18:36 | 21.68455 | 39.17339 | 32 ft | 5 kts | 340° |
| 2026-04-30 18:36 | 21.68577 | 39.17292 | 32 ft | 27 kts | 340° |
| 2026-04-30 18:36 | 21.68870 | 39.17098 | 32 ft | 23 kts | 314° |
| 2026-04-30 18:37 | 21.68954 | 39.16957 | 32 ft | 23 kts | 269° |
| 2026-04-30 18:37 | 21.68903 | 39.16909 | 32 ft | 5 kts | 158° |
| 2026-04-30 18:37 | 21.68834 | 39.16948 | 32 ft | 17 kts | 153° |
| 2026-04-30 18:37 | 21.68715 | 39.16998 | 33 ft | 20 kts | 159° |
| 2026-04-30 18:38 | 21.68592 | 39.17046 | 33 ft | 19 kts | 160° |
| 2026-04-30 18:38 | 21.68459 | 39.17098 | 33 ft | 22 kts | 160° |
| 2026-04-30 18:38 | 21.68309 | 39.17157 | 34 ft | 24 kts | 160° |
| 2026-04-30 18:38 | 21.68145 | 39.17223 | 35 ft | 27 kts | 159° |
| 2026-04-30 18:39 | 21.67965 | 39.17294 | 36 ft | 28 kts | 160° |
| 2026-04-30 18:39 | 21.67789 | 39.17363 | 37 ft | 28 kts | 160° |
| 2026-04-30 18:39 | 21.67603 | 39.17437 | 38 ft | 30 kts | 160° |
| 2026-04-30 18:39 | 21.67458 | 39.17493 | 39 ft | 20 kts | 160° |
| 2026-04-30 18:40 | 21.67321 | 39.17547 | 39 ft | 19 kts | 160° |
| 2026-04-30 18:40 | 21.67226 | 39.17506 | 39 ft | 17 kts | 235° |
| 2026-04-30 18:40 | 21.67170 | 39.17395 | 39 ft | 17 kts | 216° |
| 2026-04-30 18:40 | 21.67081 | 39.17307 | 39 ft | 19 kts | 216° |
| 2026-04-30 18:41 | 21.67019 | 39.17274 | 40 ft | 8 kts | 201° |
| 2026-04-30 18:41 | 21.66999 | 39.17222 | 40 ft | 9 kts | 282° |
| 2026-04-30 18:41 | 21.67006 | 39.17177 | 39 ft | 0 kts | 281° |
| 2026-04-30 18:42 | 21.67008 | 39.17170 | 39 ft | 1 kts | 283° |
| 2026-04-30 18:42 | 21.67011 | 39.17154 | 39 ft | 0 kts | 282° |